Time;durP1;ratioP1;P1;durP2;ratioP2;P2;SDS_P1;SDS_P2;PMS_P1;PMS_P2;Temp;Humidity;BMP_temperature;BMP_pressure;BME280_temperature;BME280_humidity;BME280_pressure;Samples;Min_cycle;Max_cycle;Signal;HPM_P1;HPM_P2
2024/03/09 00:00:39;;;;;;;11.18;4.85;;;4.50;99.90;;;;;;5093274;28;20422;-72
2024/03/09 00:03:06;;;;;;;8.43;4.68;;;4.40;99.90;;;;;;5101943;28;20113;-72
2024/03/09 00:05:32;;;;;;;9.77;4.75;;;4.40;99.90;;;;;;5070112;28;20036;-72
2024/03/09 00:08:01;;;;;;;7.25;4.18;;;4.40;99.90;;;;;;5065286;28;20487;-71
2024/03/09 00:10:27;;;;;;;7.75;5.03;;;4.30;99.90;;;;;;5103376;28;20048;-72
2024/03/09 00:12:53;;;;;;;8.25;4.10;;;4.30;99.90;;;;;;5082985;28;20040;-71
2024/03/09 00:15:23;;;;;;;5.90;4.00;;;4.30;99.90;;;;;;5082450;28;20258;-72
2024/03/09 00:17:51;;;;;;;9.93;5.38;;;4.30;99.90;;;;;;5068915;28;20039;-71
2024/03/09 00:20:21;;;;;;;9.95;4.40;;;4.30;99.90;;;;;;5071625;28;20036;-72
2024/03/09 00:22:48;;;;;;;10.50;4.93;;;4.30;99.90;;;;;;5064771;28;20047;-71
2024/03/09 00:25:14;;;;;;;7.20;3.92;;;4.20;99.90;;;;;;5070086;28;20036;-72
2024/03/09 00:27:40;;;;;;;10.60;5.32;;;4.20;99.90;;;;;;5081481;28;20045;-71
2024/03/09 00:30:10;;;;;;;9.02;5.15;;;4.20;99.90;;;;;;5086680;28;20043;-71
2024/03/09 00:32:37;;;;;;;6.03;3.45;;;4.20;99.90;;;;;;5066689;28;20035;-72
2024/03/09 00:35:05;;;;;;;7.82;4.18;;;4.20;99.90;;;;;;5069528;28;20036;-71
2024/03/09 00:37:32;;;;;;;8.55;4.32;;;4.20;99.90;;;;;;5101002;28;20400;-73
2024/03/09 00:39:58;;;;;;;6.38;4.75;;;4.20;99.90;;;;;;5087186;28;20127;-72
2024/03/09 00:42:25;;;;;;;10.02;5.90;;;4.10;99.90;;;;;;5070969;28;20172;-72
2024/03/09 00:44:51;;;;;;;10.18;5.30;;;4.10;99.90;;;;;;5100853;28;20052;-72
2024/03/09 00:47:17;;;;;;;6.63;4.13;;;4.10;99.90;;;;;;5104047;28;20040;-72
2024/03/09 00:49:43;;;;;;;11.25;4.88;;;4.10;99.90;;;;;;5086623;28;20062;-73
2024/03/09 00:52:12;;;;;;;11.75;5.15;;;4.10;99.90;;;;;;5072652;28;20401;-72
2024/03/09 00:54:38;;;;;;;13.20;5.55;;;4.00;99.90;;;;;;5086618;28;20043;-73
2024/03/09 00:57:04;;;;;;;9.95;5.28;;;4.00;99.90;;;;;;5105962;28;20044;-72
2024/03/09 00:59:31;;;;;;;11.82;5.78;;;4.00;99.90;;;;;;5085879;28;20036;-72
2024/03/09 01:02:00;;;;;;;8.65;4.68;;;4.00;99.90;;;;;;5086200;28;20047;-71
2024/03/09 01:04:27;;;;;;;11.02;5.78;;;3.90;99.90;;;;;;5067110;28;20047;-71
2024/03/09 01:06:54;;;;;;;9.25;5.63;;;4.00;99.90;;;;;;5070302;28;20500;-71
2024/03/09 01:09:20;;;;;;;8.30;4.10;;;3.90;99.90;;;;;;5066291;28;20071;-72
2024/03/09 01:11:48;;;;;;;9.68;4.32;;;3.90;99.90;;;;;;5069934;28;20051;-71
2024/03/09 01:14:15;;;;;;;9.98;5.93;;;3.90;99.90;;;;;;5069163;28;20046;-72
2024/03/09 01:16:41;;;;;;;7.20;4.75;;;3.90;99.90;;;;;;5081398;28;20098;-71
2024/03/09 01:19:07;;;;;;;16.90;4.68;;;3.90;99.90;;;;;;5083850;28;20487;-71
2024/03/09 01:21:33;;;;;;;8.48;5.40;;;3.80;99.90;;;;;;5084207;28;20087;-72
2024/03/09 01:24:04;;;;;;;5.30;3.85;;;3.80;99.90;;;;;;5086416;28;20040;-71
2024/03/09 01:26:30;;;;;;;7.20;3.45;;;3.80;99.90;;;;;;5085434;28;20028;-72
2024/03/09 01:28:56;;;;;;;8.55;3.47;;;3.80;99.90;;;;;;5086989;28;20049;-72
2024/03/09 01:31:27;;;;;;;8.07;4.03;;;3.80;99.90;;;;;;5068440;28;20032;-73
2024/03/09 01:33:57;;;;;;;5.00;3.38;;;3.80;99.90;;;;;;5086048;28;20118;-71
2024/03/09 01:36:24;;;;;;;8.63;4.63;;;3.80;99.90;;;;;;5068326;28;20119;-71
2024/03/09 01:38:50;;;;;;;13.75;4.43;;;3.70;99.90;;;;;;5087485;28;20162;-72
2024/03/09 01:41:16;;;;;;;10.10;4.53;;;3.70;99.90;;;;;;5080881;28;20075;-71
2024/03/09 01:43:42;;;;;;;7.90;4.28;;;3.70;99.90;;;;;;5090269;28;20123;-71
2024/03/09 01:46:11;;;;;;;7.97;4.40;;;3.70;99.90;;;;;;5066274;28;20097;-71
2024/03/09 01:48:40;;;;;;;11.25;4.47;;;3.70;99.90;;;;;;5103616;28;20040;-71
2024/03/09 01:51:07;;;;;;;9.18;5.43;;;3.60;99.90;;;;;;5068622;28;20071;-71
2024/03/09 01:53:37;;;;;;;7.88;4.30;;;3.60;99.90;;;;;;5087241;28;20088;-71
2024/03/09 01:56:07;;;;;;;9.45;4.35;;;3.70;99.90;;;;;;5100666;28;20082;-71
2024/03/09 01:58:35;;;;;;;10.50;4.63;;;3.60;99.90;;;;;;5068591;28;20040;-71
2024/03/09 02:01:08;;;;;;;10.50;4.28;;;3.60;99.90;;;;;;5086129;28;20480;-72
2024/03/09 02:03:35;;;;;;;9.63;4.22;;;3.60;99.90;;;;;;5087346;28;20036;-71
2024/03/09 02:06:01;;;;;;;7.32;5.13;;;3.60;99.90;;;;;;5068844;28;20024;-70
2024/03/09 02:08:30;;;;;;;6.50;2.60;;;3.60;99.90;;;;;;5080559;28;20572;-71
2024/03/09 02:10:56;;;;;;;6.85;4.65;;;3.60;99.90;;;;;;5073481;28;20067;-71
2024/03/09 02:13:23;;;;;;;6.25;3.63;;;3.60;99.90;;;;;;5075962;28;20090;-71
2024/03/09 02:15:49;;;;;;;13.13;4.88;;;3.50;99.90;;;;;;5109779;28;20411;-71
2024/03/09 02:18:16;;;;;;;9.25;4.10;;;3.50;99.90;;;;;;5110535;28;20044;-71
2024/03/09 02:20:43;;;;;;;8.02;4.15;;;3.50;99.90;;;;;;5092002;28;20071;-71
2024/03/09 02:23:10;;;;;;;8.30;4.03;;;3.40;99.90;;;;;;5093874;28;20047;-71
2024/03/09 02:25:36;;;;;;;7.75;4.82;;;3.40;99.90;;;;;;5092232;28;20032;-71
2024/03/09 02:28:05;;;;;;;7.60;4.05;;;3.40;99.90;;;;;;5075634;28;20070;-71
2024/03/09 02:30:31;;;;;;;8.27;4.10;;;3.40;99.90;;;;;;5093062;28;20119;-71
2024/03/09 02:32:57;;;;;;;5.88;4.00;;;3.40;99.90;;;;;;5090160;28;20699;-72
2024/03/09 02:35:23;;;;;;;8.48;4.32;;;3.30;99.90;;;;;;5095945;28;20063;-72
2024/03/09 02:37:49;;;;;;;6.70;4.35;;;3.40;99.90;;;;;;5074783;28;20070;-71
2024/03/09 02:40:14;;;;;;;10.50;4.03;;;3.30;99.90;;;;;;5077219;28;20046;-71
2024/03/09 02:43:04;;;;;;;10.63;6.40;;;3.40;99.90;;;;;;5092827;28;20035;-71
2024/03/09 02:45:30;;;;;;;8.85;4.55;;;3.40;99.90;;;;;;5094181;28;20576;-71
2024/03/09 02:47:55;;;;;;;10.38;4.25;;;3.40;99.90;;;;;;5093725;28;20098;-72
2024/03/09 02:50:24;;;;;;;6.97;3.33;;;3.30;99.90;;;;;;5093219;28;20175;-72
2024/03/09 02:52:50;;;;;;;7.35;3.92;;;3.30;99.90;;;;;;5090264;28;20044;-71
2024/03/09 02:55:16;;;;;;;6.78;4.20;;;3.20;99.90;;;;;;5089410;28;20044;-71
2024/03/09 02:57:42;;;;;;;5.82;3.33;;;3.20;99.90;;;;;;5075714;28;20090;-70
2024/03/09 03:00:09;;;;;;;11.73;5.45;;;3.20;99.90;;;;;;5090244;28;20499;-71
2024/03/09 03:05:22;;;;;;;5.78;3.50;;;3.20;99.90;;;;;;5094215;28;20059;-71
2024/03/09 03:07:47;;;;;;;5.45;4.20;;;3.10;99.90;;;;;;5092286;28;20032;-71
2024/03/09 03:10:13;;;;;;;4.78;3.53;;;3.10;99.90;;;;;;5074834;28;20036;-71
2024/03/09 03:12:39;;;;;;;9.18;5.18;;;3.10;99.90;;;;;;5094081;28;20530;-70
2024/03/09 03:15:08;;;;;;;10.20;4.38;;;3.20;99.90;;;;;;5093196;28;20040;-72
2024/03/09 03:17:36;;;;;;;5.95;3.85;;;3.10;99.90;;;;;;5090310;28;20074;-72
2024/03/09 03:20:04;;;;;;;8.23;4.97;;;3.10;99.90;;;;;;5077850;28;20040;-71
2024/03/09 03:22:30;;;;;;;8.20;4.43;;;3.00;99.90;;;;;;5088223;28;20051;-71
2024/03/09 03:24:56;;;;;;;10.85;4.85;;;3.00;99.90;;;;;;5069054;28;20134;-71
2024/03/09 03:27:22;;;;;;;6.53;4.15;;;3.00;99.90;;;;;;5089946;28;20118;-71
2024/03/09 03:29:51;;;;;;;8.82;4.72;;;3.00;99.90;;;;;;5088686;28;20126;-71
2024/03/09 03:32:17;;;;;;;5.47;3.17;;;3.00;99.90;;;;;;5090388;28;20044;-70
2024/03/09 03:34:43;;;;;;;5.95;3.88;;;3.00;99.90;;;;;;5078547;28;20052;-70
2024/03/09 03:37:09;;;;;;;7.00;4.28;;;3.00;99.90;;;;;;5089620;28;20058;-71
2024/03/09 03:39:37;;;;;;;7.60;4.30;;;2.90;99.90;;;;;;5085635;28;20396;-72
2024/03/09 03:42:03;;;;;;;7.90;3.97;;;2.90;99.90;;;;;;5090426;28;20048;-71
2024/03/09 03:44:32;;;;;;;9.38;5.45;;;2.90;99.90;;;;;;5068100;28;20123;-72
2024/03/09 03:46:57;;;;;;;13.32;7.05;;;2.90;99.90;;;;;;5088431;28;20105;-72
2024/03/09 03:49:23;;;;;;;6.95;3.40;;;2.90;99.90;;;;;;5086656;28;20423;-72
2024/03/09 03:51:49;;;;;;;8.32;5.55;;;2.80;99.90;;;;;;5105374;28;20141;-72
2024/03/09 03:54:15;;;;;;;9.05;4.32;;;2.80;99.90;;;;;;5089762;28;20627;-73
2024/03/09 03:56:42;;;;;;;8.75;4.00;;;2.80;99.90;;;;;;5089477;28;20435;-72
2024/03/09 03:59:10;;;;;;;9.70;4.15;;;2.70;99.90;;;;;;5090655;28;20054;-72
2024/03/09 04:01:36;;;;;;;6.65;3.35;;;2.80;99.90;;;;;;5089699;28;20072;-72
2024/03/09 04:04:02;;;;;;;7.47;5.63;;;2.70;99.90;;;;;;5090448;28;20527;-72
2024/03/09 04:06:27;;;;;;;5.97;3.75;;;2.70;99.90;;;;;;5104126;28;20032;-71
2024/03/09 04:08:53;;;;;;;6.43;4.13;;;2.70;99.90;;;;;;5072839;28;20093;-72
2024/03/09 04:11:19;;;;;;;5.68;4.20;;;2.60;99.90;;;;;;5069403;28;20055;-72
2024/03/09 04:13:45;;;;;;;8.48;3.95;;;2.70;99.90;;;;;;5106883;28;20104;-72
2024/03/09 04:16:10;;;;;;;8.45;4.32;;;2.60;99.90;;;;;;5086856;28;20479;-72
2024/03/09 04:18:36;;;;;;;5.80;3.97;;;2.60;99.90;;;;;;5086304;28;20055;-72
2024/03/09 04:21:03;;;;;;;6.85;4.47;;;2.60;99.90;;;;;;5085126;28;20048;-72
2024/03/09 04:23:29;;;;;;;4.25;3.55;;;2.50;99.90;;;;;;5069537;28;20036;-72
2024/03/09 04:25:57;;;;;;;4.22;3.70;;;2.50;99.90;;;;;;5067159;28;20032;-71
2024/03/09 04:28:27;;;;;;;6.68;4.68;;;2.50;99.90;;;;;;5068425;28;20035;-72
2024/03/09 04:30:53;;;;;;;5.93;3.90;;;2.50;99.90;;;;;;5085599;28;20048;-71
2024/03/09 04:33:19;;;;;;;9.23;5.05;;;2.50;99.90;;;;;;5072562;28;20105;-71
2024/03/09 04:35:48;;;;;;;6.30;4.03;;;2.40;99.90;;;;;;5086290;28;20040;-72
2024/03/09 04:38:17;;;;;;;10.45;4.95;;;2.40;99.90;;;;;;5085976;28;20062;-72
2024/03/09 04:40:46;;;;;;;5.97;4.45;;;2.40;99.90;;;;;;5081710;28;20040;-72
2024/03/09 04:43:13;;;;;;;5.80;3.33;;;2.40;99.90;;;;;;5103636;28;20036;-71
2024/03/09 04:45:39;;;;;;;8.13;4.72;;;2.40;99.90;;;;;;5089293;28;20394;-71
2024/03/09 04:48:06;;;;;;;14.48;5.32;;;2.40;99.90;;;;;;5078459;28;20126;-71
2024/03/09 04:50:35;;;;;;;4.63;3.47;;;2.40;99.90;;;;;;5105537;28;20039;-71
2024/03/09 04:53:05;;;;;;;5.90;3.60;;;2.40;99.90;;;;;;5100742;28;20510;-72
2024/03/09 04:55:31;;;;;;;8.60;4.78;;;2.30;99.90;;;;;;5088457;28;20075;-71
2024/03/09 04:58:00;;;;;;;8.10;3.85;;;2.30;99.90;;;;;;5085797;28;20508;-71
2024/03/09 05:00:31;;;;;;;6.60;4.75;;;2.30;99.90;;;;;;5087294;28;20051;-71
2024/03/09 05:02:57;;;;;;;6.82;3.75;;;2.30;99.90;;;;;;5070605;28;20097;-71
2024/03/09 05:05:29;;;;;;;6.03;4.43;;;2.30;99.90;;;;;;5106063;28;20036;-71
2024/03/09 05:07:55;;;;;;;8.38;4.45;;;2.30;99.90;;;;;;5068858;28;20083;-70
2024/03/09 05:10:23;;;;;;;6.63;3.20;;;2.20;99.90;;;;;;5070840;28;20545;-71
2024/03/09 05:12:53;;;;;;;11.15;5.72;;;2.20;99.90;;;;;;5086167;28;20041;-72
2024/03/09 05:15:23;;;;;;;10.57;4.93;;;2.20;99.90;;;;;;5087213;28;20503;-72
2024/03/09 05:17:50;;;;;;;9.32;3.50;;;2.10;99.90;;;;;;5090705;28;20040;-71
2024/03/09 05:20:25;;;;;;;5.47;3.33;;;2.20;99.90;;;;;;5087630;28;20047;-72
2024/03/09 05:22:51;;;;;;;6.63;3.15;;;2.10;99.90;;;;;;5087237;28;20119;-72
2024/03/09 05:25:18;;;;;;;7.22;4.63;;;2.10;99.90;;;;;;5084216;28;20052;-72
2024/03/09 05:27:45;;;;;;;4.63;3.33;;;2.10;99.90;;;;;;5084253;28;20036;-71
2024/03/09 05:30:15;;;;;;;6.32;4.60;;;2.10;99.90;;;;;;5085673;28;20040;-71
2024/03/09 05:32:53;;;;;;;4.78;3.05;;;2.10;99.90;;;;;;5087477;28;20500;-72
2024/03/09 05:35:20;;;;;;;8.25;4.78;;;2.00;99.90;;;;;;5084507;28;20040;-71
2024/03/09 05:37:49;;;;;;;9.25;4.13;;;2.00;99.90;;;;;;5069275;28;20040;-71
2024/03/09 05:40:16;;;;;;;9.55;4.40;;;2.00;99.90;;;;;;5070458;28;20131;-71
2024/03/09 05:42:43;;;;;;;8.48;4.57;;;2.00;99.90;;;;;;5069971;28;20040;-71
2024/03/09 05:45:18;;;;;;;8.73;4.55;;;2.00;99.90;;;;;;5066182;28;20036;-71
2024/03/09 05:47:57;;;;;;;6.53;3.20;;;2.00;99.90;;;;;;5085607;28;20080;-71
2024/03/09 05:50:28;;;;;;;9.27;4.50;;;2.00;99.90;;;;;;5085828;28;20036;-72
2024/03/09 05:52:58;;;;;;;8.52;4.55;;;2.00;99.90;;;;;;5071312;28;20119;-71
2024/03/09 05:55:25;;;;;;;5.10;3.08;;;2.00;99.90;;;;;;5068329;28;20136;-71
2024/03/09 05:57:52;;;;;;;9.50;3.90;;;1.90;99.90;;;;;;5087906;28;20044;-72
2024/03/09 06:00:19;;;;;;;9.55;5.43;;;1.90;99.90;;;;;;5066291;28;20055;-72
2024/03/09 06:02:48;;;;;;;9.25;5.00;;;1.90;99.90;;;;;;5088383;28;20110;-71
2024/03/09 06:05:15;;;;;;;5.15;3.90;;;1.90;99.90;;;;;;5085643;28;20119;-71
2024/03/09 06:07:44;;;;;;;8.82;4.95;;;1.90;99.90;;;;;;5088269;28;20044;-71
2024/03/09 06:10:14;;;;;;;7.95;3.50;;;2.00;99.90;;;;;;5084908;28;20472;-71
2024/03/09 06:12:47;;;;;;;9.82;5.00;;;1.90;99.90;;;;;;5084226;28;20048;-72
2024/03/09 06:15:14;;;;;;;8.10;4.47;;;1.90;99.90;;;;;;5081177;28;20391;-71
2024/03/09 06:17:44;;;;;;;14.43;4.82;;;1.90;99.90;;;;;;5081644;28;20041;-71
2024/03/09 06:20:11;;;;;;;6.32;4.15;;;1.90;99.90;;;;;;5086385;28;20040;-71
2024/03/09 06:22:38;;;;;;;14.18;5.43;;;1.90;99.90;;;;;;5083902;28;20173;-72
2024/03/09 06:25:04;;;;;;;5.47;3.67;;;2.00;99.90;;;;;;5082402;28;20513;-72
2024/03/09 06:27:32;;;;;;;11.95;5.15;;;2.00;99.90;;;;;;5084587;28;20039;-72
2024/03/09 06:29:59;;;;;;;8.60;3.97;;;2.00;99.90;;;;;;5067741;28;20563;-72
2024/03/09 06:32:25;;;;;;;9.10;5.72;;;2.10;99.90;;;;;;5068521;28;20046;-72
2024/03/09 06:34:54;;;;;;;6.00;3.92;;;2.10;99.90;;;;;;5068031;28;20044;-72
2024/03/09 06:37:22;;;;;;;9.90;4.90;;;2.10;99.90;;;;;;5080676;28;20115;-71
2024/03/09 06:39:48;;;;;;;6.85;3.55;;;2.10;99.90;;;;;;5084896;28;20051;-71
2024/03/09 06:42:14;;;;;;;6.70;4.95;;;2.20;99.90;;;;;;5083910;28;20549;-71
2024/03/09 06:44:40;;;;;;;8.50;5.05;;;2.20;99.90;;;;;;5080407;28;20420;-71
2024/03/09 06:47:06;;;;;;;5.65;3.67;;;2.20;99.90;;;;;;5084752;28;20114;-71
2024/03/09 06:49:35;;;;;;;11.82;5.03;;;2.30;99.90;;;;;;5085264;28;20052;-71
2024/03/09 06:52:04;;;;;;;7.50;4.05;;;2.40;99.90;;;;;;5082359;28;20031;-73
2024/03/09 06:54:31;;;;;;;10.32;5.72;;;2.40;99.90;;;;;;5104152;28;20476;-71
2024/03/09 06:56:57;;;;;;;8.43;5.63;;;2.40;99.90;;;;;;5086404;28;20463;-72
2024/03/09 06:59:23;;;;;;;9.35;5.10;;;2.40;99.90;;;;;;5088619;28;20452;-71
2024/03/09 07:01:57;;;;;;;6.80;4.88;;;2.50;99.90;;;;;;5086928;28;20117;-71
2024/03/09 07:04:24;;;;;;;7.38;4.47;;;2.50;99.90;;;;;;5087512;28;20048;-72
2024/03/09 07:06:50;;;;;;;10.38;4.95;;;2.60;99.90;;;;;;5084870;28;20044;-72
2024/03/09 07:09:17;;;;;;;9.30;6.13;;;2.70;99.90;;;;;;5089908;28;20330;-72
2024/03/09 07:11:42;;;;;;;15.45;7.10;;;2.70;99.90;;;;;;5088159;28;20048;-72
2024/03/09 07:14:08;;;;;;;8.40;4.60;;;2.80;99.90;;;;;;5087728;28;20036;-72
2024/03/09 07:16:34;;;;;;;8.68;5.38;;;2.80;99.90;;;;;;5102007;28;20044;-72
2024/03/09 07:19:00;;;;;;;8.18;5.60;;;2.90;99.90;;;;;;5081117;28;20491;-72
2024/03/09 07:21:26;;;;;;;12.35;6.07;;;2.90;99.90;;;;;;5071683;28;20040;-72
2024/03/09 07:23:52;;;;;;;11.00;6.10;;;3.00;99.90;;;;;;5070723;28;20046;-73
2024/03/09 07:26:18;;;;;;;8.00;3.95;;;3.10;99.90;;;;;;5086752;28;20076;-72
2024/03/09 07:28:44;;;;;;;9.68;6.40;;;3.20;99.90;;;;;;5086824;28;20075;-73
2024/03/09 07:31:11;;;;;;;7.35;4.97;;;3.20;99.90;;;;;;5070114;28;20086;-72
2024/03/09 07:33:37;;;;;;;8.25;5.03;;;3.30;99.90;;;;;;5086491;28;20044;-73
2024/03/09 07:36:03;;;;;;;9.75;5.95;;;3.50;99.90;;;;;;5088183;28;20071;-72
2024/03/09 07:38:29;;;;;;;7.50;4.85;;;3.60;99.90;;;;;;5088389;28;20071;-72
2024/03/09 07:40:55;;;;;;;6.43;4.25;;;3.70;99.90;;;;;;5086249;28;20121;-73
2024/03/09 07:43:22;;;;;;;10.05;5.70;;;3.80;99.90;;;;;;5066601;28;20122;-74
2024/03/09 07:45:48;;;;;;;10.88;5.07;;;3.90;99.90;;;;;;5088174;28;20054;-72
2024/03/09 07:48:14;;;;;;;8.13;4.95;;;4.00;99.90;;;;;;5066678;28;20037;-73
2024/03/09 07:50:40;;;;;;;9.05;5.30;;;4.20;99.90;;;;;;5066790;28;20379;-73
2024/03/09 07:53:06;;;;;;;8.55;6.10;;;4.30;99.90;;;;;;5082436;28;20036;-73
2024/03/09 07:55:32;;;;;;;17.98;7.70;;;4.50;99.90;;;;;;5068379;28;20052;-73
2024/03/09 07:57:59;;;;;;;10.75;6.00;;;4.70;99.90;;;;;;5082466;28;20028;-73
2024/03/09 08:00:28;;;;;;;10.38;5.40;;;5.20;99.90;;;;;;5071624;28;20162;-73
2024/03/09 08:02:55;;;;;;;8.23;5.40;;;5.70;99.90;;;;;;5098978;28;20138;-73
2024/03/09 08:05:24;;;;;;;14.50;6.90;;;6.20;99.90;;;;;;5077754;28;20087;-75
2024/03/09 08:07:51;;;;;;;10.07;5.38;;;6.70;99.90;;;;;;5083797;28;20040;-73
2024/03/09 08:10:19;;;;;;;11.95;5.95;;;7.20;99.90;;;;;;5088638;28;20547;-74
2024/03/09 08:12:46;;;;;;;12.43;6.35;;;7.70;99.90;;;;;;5069766;28;20051;-74
2024/03/09 08:15:12;;;;;;;7.78;5.43;;;8.50;99.90;;;;;;5086745;28;20044;-77
2024/03/09 08:17:42;;;;;;;9.07;5.60;;;8.90;99.90;;;;;;5071076;28;20076;-73
2024/03/09 08:20:08;;;;;;;9.73;4.93;;;8.90;99.90;;;;;;5087519;28;20123;-74
2024/03/09 08:22:39;;;;;;;12.07;6.60;;;8.30;99.90;;;;;;5083993;28;20051;-73
2024/03/09 08:25:15;;;;;;;10.55;5.82;;;7.90;99.90;;;;;;5087107;28;20040;-73
2024/03/09 08:27:42;;;;;;;10.23;6.35;;;7.50;99.90;;;;;;5083488;28;20561;-73
2024/03/09 08:30:15;;;;;;;9.85;5.05;;;7.40;99.90;;;;;;5101753;28;20064;-74
2024/03/09 08:32:44;;;;;;;9.40;5.45;;;8.00;99.90;;;;;;5070918;28;20446;-74
2024/03/09 08:35:16;;;;;;;11.00;5.30;;;8.60;99.90;;;;;;5068215;28;20115;-74
2024/03/09 08:37:45;;;;;;;8.45;5.70;;;8.90;99.90;;;;;;5084006;28;20465;-74
2024/03/09 08:40:17;;;;;;;9.20;5.35;;;9.00;99.90;;;;;;5081567;28;20044;-74
2024/03/09 08:42:48;;;;;;;11.45;6.70;;;9.40;99.90;;;;;;5104624;28;20036;-74
2024/03/09 08:45:14;;;;;;;9.38;4.80;;;9.60;99.90;;;;;;5065640;28;20045;-74
2024/03/09 08:47:44;;;;;;;8.50;5.10;;;9.60;99.90;;;;;;5104109;28;20143;-73
2024/03/09 08:50:10;;;;;;;10.00;5.68;;;9.90;99.90;;;;;;5100820;28;20055;-73
2024/03/09 08:52:40;;;;;;;8.30;5.22;;;10.20;99.90;;;;;;5089880;28;20036;-74
2024/03/09 08:55:13;;;;;;;10.50;6.20;;;10.10;99.90;;;;;;5067345;28;20056;-74
2024/03/09 08:57:41;;;;;;;9.45;4.97;;;10.10;99.90;;;;;;5086301;28;20580;-74
2024/03/09 09:00:09;;;;;;;10.77;5.50;;;10.00;99.90;;;;;;5079560;28;20036;-75
2024/03/09 09:02:37;;;;;;;9.85;5.03;;;9.80;99.90;;;;;;5088067;28;20107;-74
2024/03/09 09:05:12;;;;;;;12.27;5.90;;;9.50;99.90;;;;;;5064930;28;20036;-74
2024/03/09 09:07:40;;;;;;;10.45;5.20;;;9.20;99.90;;;;;;5086500;28;20047;-73
2024/03/09 09:10:11;;;;;;;7.03;4.55;;;8.90;99.90;;;;;;5080295;28;20040;-74
2024/03/09 09:12:40;;;;;;;9.00;5.43;;;8.70;99.90;;;;;;5069900;28;20460;-74
2024/03/09 09:15:09;;;;;;;7.47;4.45;;;8.70;99.90;;;;;;5085245;28;20043;-73
2024/03/09 09:17:35;;;;;;;6.95;4.78;;;8.80;99.90;;;;;;5096516;28;20466;-72
2024/03/09 09:20:03;;;;;;;9.05;5.20;;;9.00;99.90;;;;;;5067733;28;20050;-73
2024/03/09 09:22:29;;;;;;;7.15;4.40;;;9.30;99.90;;;;;;5088183;28;20043;-74
2024/03/09 09:24:56;;;;;;;10.50;5.53;;;9.60;99.90;;;;;;5068548;28;20055;-74
2024/03/09 09:27:23;;;;;;;6.75;3.80;;;10.00;99.90;;;;;;5087110;28;20042;-75
2024/03/09 09:29:49;;;;;;;9.23;4.50;;;10.20;99.90;;;;;;5068557;28;20071;-75
2024/03/09 09:32:14;;;;;;;12.85;4.65;;;10.30;99.90;;;;;;5090117;28;20071;-74
2024/03/09 09:34:40;;;;;;;8.63;4.20;;;10.40;99.90;;;;;;5083033;28;21634;-75
2024/03/09 09:37:12;;;;;;;10.35;5.47;;;10.50;99.90;;;;;;5085263;28;20108;-74
2024/03/09 09:39:38;;;;;;;9.00;5.35;;;10.60;99.90;;;;;;5088143;28;20126;-75
2024/03/09 09:42:05;;;;;;;8.43;4.57;;;10.40;99.90;;;;;;5069276;28;20078;-73
2024/03/09 09:44:30;;;;;;;10.50;5.03;;;10.50;99.90;;;;;;5103626;28;20578;-74
2024/03/09 09:46:57;;;;;;;10.73;5.22;;;11.00;99.90;;;;;;5083074;28;20101;-74
2024/03/09 09:49:25;;;;;;;8.50;4.55;;;11.10;99.90;;;;;;5082667;28;20040;-74
2024/03/09 09:51:52;;;;;;;7.85;4.07;;;11.30;99.90;;;;;;5065518;28;20036;-74
2024/03/09 09:54:26;;;;;;;7.70;5.07;;;11.70;99.90;;;;;;5086078;28;20388;-75
2024/03/09 09:56:56;;;;;;;9.95;5.63;;;12.00;99.90;;;;;;5084049;28;20102;-74
2024/03/09 09:59:23;;;;;;;11.20;5.30;;;12.00;99.90;;;;;;5086710;28;20149;-74
2024/03/09 10:01:49;;;;;;;9.52;5.53;;;11.50;99.90;;;;;;5080953;28;20507;-73
2024/03/09 10:04:17;;;;;;;10.57;5.32;;;11.50;99.90;;;;;;5070071;28;20132;-74
2024/03/09 10:06:44;;;;;;;9.50;5.38;;;11.60;99.90;;;;;;5067852;28;20028;-74
2024/03/09 10:09:10;;;;;;;8.23;5.25;;;12.00;99.90;;;;;;5088067;28;20483;-74
2024/03/09 10:11:36;;;;;;;9.07;5.05;;;12.50;99.90;;;;;;5068854;28;20058;-74
2024/03/09 10:14:02;;;;;;;7.90;4.80;;;12.70;99.90;;;;;;5085758;28;20089;-74
2024/03/09 10:16:29;;;;;;;7.18;4.95;;;12.80;99.90;;;;;;5084290;28;20032;-75
2024/03/09 10:18:59;;;;;;;9.10;4.80;;;13.00;99.90;;;;;;5070623;28;20036;-75
2024/03/09 10:21:37;;;;;;;9.55;5.18;;;13.30;99.90;;;;;;5087573;28;20036;-74
2024/03/09 10:24:07;;;;;;;9.02;4.75;;;13.40;99.90;;;;;;5104295;28;20040;-74
2024/03/09 10:26:36;;;;;;;8.45;4.32;;;13.40;99.90;;;;;;5086783;28;20514;-74
2024/03/09 10:29:03;;;;;;;11.35;5.53;;;13.30;99.90;;;;;;5069119;28;20400;-74
2024/03/09 10:31:30;;;;;;;7.72;4.97;;;13.30;99.90;;;;;;5089901;28;20036;-75
2024/03/09 10:33:57;;;;;;;12.43;6.13;;;13.10;99.90;;;;;;5072696;28;20036;-74
2024/03/09 10:36:24;;;;;;;8.27;4.45;;;13.00;99.90;;;;;;5090514;28;20055;-74
2024/03/09 10:38:54;;;;;;;7.85;4.93;;;12.60;99.90;;;;;;5072453;28;20072;-73
2024/03/09 10:41:24;;;;;;;9.20;5.28;;;12.40;99.90;;;;;;5087910;28;20407;-74
2024/03/09 10:43:55;;;;;;;8.30;5.20;;;12.30;99.90;;;;;;5073146;28;20098;-74
2024/03/09 10:46:32;;;;;;;8.75;4.95;;;12.20;99.90;;;;;;5070269;28;20040;-75
2024/03/09 10:48:58;;;;;;;9.52;5.40;;;12.10;99.90;;;;;;5067221;28;20063;-75
2024/03/09 10:51:37;;;;;;;10.13;4.63;;;11.80;99.90;;;;;;5090761;28;20047;-74
2024/03/09 10:54:21;;;;;;;6.50;4.90;;;11.60;99.90;;;;;;5070318;28;20514;-74
2024/03/09 10:56:51;;;;;;;11.23;6.00;;;11.30;99.90;;;;;;5097255;28;20060;-74
2024/03/09 10:59:22;;;;;;;7.93;4.05;;;11.00;99.90;;;;;;5079945;28;20044;-76
2024/03/09 11:01:53;;;;;;;8.45;5.18;;;10.80;99.90;;;;;;5106380;28;20064;-74
2024/03/09 11:04:20;;;;;;;9.20;5.50;;;10.60;99.90;;;;;;5065922;28;20047;-73
2024/03/09 11:06:47;;;;;;;11.20;5.93;;;10.30;99.90;;;;;;5073146;28;20032;-74
2024/03/09 11:09:16;;;;;;;13.05;5.50;;;10.10;99.90;;;;;;5070449;28;20505;-73
2024/03/09 11:11:44;;;;;;;8.75;5.30;;;9.80;99.90;;;;;;5070957;28;20040;-73
2024/03/09 11:14:24;;;;;;;11.27;5.78;;;9.70;99.90;;;;;;5086602;28;20196;-74
2024/03/09 11:16:55;;;;;;;8.07;4.57;;;9.70;99.90;;;;;;5071890;28;20049;-74
2024/03/09 11:19:27;;;;;;;8.88;4.78;;;10.20;99.90;;;;;;5087560;28;20062;-73
2024/03/09 11:21:53;;;;;;;8.45;5.70;;;10.80;99.90;;;;;;5083909;28;20048;-74
2024/03/09 11:24:20;;;;;;;11.02;5.47;;;11.50;99.90;;;;;;5086923;28;20048;-75
2024/03/09 11:26:52;;;;;;;9.63;5.65;;;11.80;99.90;;;;;;5085304;28;20044;-74
2024/03/09 11:29:21;;;;;;;9.93;5.60;;;12.00;99.90;;;;;;5079487;28;20044;-74
2024/03/09 11:31:50;;;;;;;10.00;5.38;;;12.30;99.90;;;;;;5086403;28;20507;-74
2024/03/09 11:34:23;;;;;;;8.35;5.82;;;12.60;99.90;;;;;;5088395;28;20044;-74
2024/03/09 11:36:51;;;;;;;8.23;4.95;;;12.60;99.90;;;;;;5084155;28;20051;-74
2024/03/09 11:39:28;;;;;;;6.90;4.50;;;12.90;99.90;;;;;;5090001;28;20090;-73
2024/03/09 11:42:01;;;;;;;8.88;5.45;;;13.10;99.90;;;;;;5068697;28;20425;-74
2024/03/09 11:44:38;;;;;;;8.97;5.47;;;13.20;99.90;;;;;;5072000;28;20073;-75
2024/03/09 11:47:04;;;;;;;11.02;5.10;;;13.50;99.90;;;;;;5100376;28;20044;-75
2024/03/09 11:49:33;;;;;;;8.98;5.28;;;13.70;99.90;;;;;;5074181;28;20036;-73
2024/03/09 11:51:59;;;;;;;12.15;5.82;;;14.10;99.90;;;;;;5088784;28;20414;-75
2024/03/09 11:54:27;;;;;;;11.15;5.97;;;14.40;99.90;;;;;;5107485;28;20055;-73
2024/03/09 11:56:55;;;;;;;7.80;4.95;;;14.50;99.90;;;;;;5085067;28;20087;-75
2024/03/09 11:59:21;;;;;;;9.45;4.93;;;14.40;99.30;;;;;;5070110;28;20036;-75
2024/03/09 12:01:50;;;;;;;6.50;4.25;;;14.20;99.60;;;;;;5072433;28;20051;-74
2024/03/09 12:04:18;;;;;;;7.55;4.65;;;14.40;99.90;;;;;;5105836;28;20417;-75
2024/03/09 12:06:44;;;;;;;10.52;5.57;;;14.40;99.30;;;;;;5104222;28;20040;-76
2024/03/09 12:09:13;;;;;;;8.65;4.82;;;14.50;99.90;;;;;;5085180;28;20487;-75
2024/03/09 12:11:42;;;;;;;9.32;4.88;;;14.70;99.90;;;;;;5070484;28;20044;-75
2024/03/09 12:14:07;;;;;;;7.30;5.15;;;14.70;99.90;;;;;;5086057;28;20055;-75
2024/03/09 12:16:35;;;;;;;9.27;5.03;;;14.80;99.90;;;;;;5088793;28;20054;-74
2024/03/09 12:19:06;;;;;;;8.98;5.50;;;15.10;98.80;;;;;;5071586;28;20425;-75
2024/03/09 12:21:36;;;;;;;9.10;4.85;;;15.30;99.00;;;;;;5082433;28;20044;-75
2024/03/09 12:24:03;;;;;;;10.65;5.55;;;15.50;97.30;;;;;;5089102;28;20127;-75
2024/03/09 12:26:31;;;;;;;9.48;4.68;;;15.60;98.00;;;;;;5085752;28;20447;-75
2024/03/09 12:29:03;;;;;;;9.30;5.40;;;15.80;97.90;;;;;;5085288;28;20141;-75
2024/03/09 12:31:29;;;;;;;8.10;5.47;;;15.50;98.40;;;;;;5103910;28;20395;-75
2024/03/09 12:33:55;;;;;;;6.75;4.47;;;15.60;98.10;;;;;;5106268;28;20118;-74
2024/03/09 12:36:25;;;;;;;9.85;6.07;;;15.80;98.10;;;;;;5069576;28;20056;-75
2024/03/09 12:38:51;;;;;;;10.57;5.03;;;15.70;95.50;;;;;;5087222;28;20044;-75
2024/03/09 12:41:28;;;;;;;9.57;4.65;;;15.80;96.60;;;;;;5087367;28;20055;-75
2024/03/09 12:43:55;;;;;;;8.85;5.00;;;15.90;96.40;;;;;;5087934;28;20480;-74
2024/03/09 12:46:28;;;;;;;7.28;4.53;;;15.80;94.60;;;;;;5097568;28;20510;-73
2024/03/09 12:48:57;;;;;;;9.98;5.50;;;15.70;97.00;;;;;;5088338;28;20361;-73
2024/03/09 12:51:23;;;;;;;8.93;4.72;;;15.40;94.50;;;;;;5071580;28;20036;-73
2024/03/09 12:53:57;;;;;;;9.95;5.85;;;15.30;94.80;;;;;;5070770;28;20040;-73
2024/03/09 12:56:30;;;;;;;8.75;4.68;;;15.00;95.10;;;;;;5089697;28;20101;-75